Map

Track Data

SID SEASON NUMBER BASIN SUBBASIN NAME ISO_TIME NATURE LAT LON WMO_WIND WMO_PRES WMO_AGENCY TRACK_TYPE DIST2LAND LANDFALL IFLAG USA_AGENCY USA_ATCF_ID USA_LAT USA_LON USA_RECORD USA_STATUS USA_WIND USA_PRES USA_SSHS USA_R34_NE USA_R34_SE USA_R34_SW USA_R34_NW USA_R50_NE USA_R50_SE USA_R50_SW USA_R50_NW USA_R64_NE USA_R64_SE USA_R64_SW USA_R64_NW USA_POCI USA_ROCI USA_RMW USA_EYE TOKYO_LAT TOKYO_LON TOKYO_GRADE TOKYO_WIND TOKYO_PRES TOKYO_R50_DIR TOKYO_R50_LONG TOKYO_R50_SHORT TOKYO_R30_DIR TOKYO_R30_LONG TOKYO_R30_SHORT TOKYO_LAND CMA_LAT CMA_LON CMA_CAT CMA_WIND CMA_PRES HKO_LAT HKO_LON HKO_CAT HKO_WIND HKO_PRES NEWDELHI_LAT NEWDELHI_LON NEWDELHI_GRADE NEWDELHI_WIND NEWDELHI_PRES NEWDELHI_CI NEWDELHI_DP NEWDELHI_POCI REUNION_LAT REUNION_LON REUNION_TYPE REUNION_WIND REUNION_PRES REUNION_TNUM REUNION_CI REUNION_RMW REUNION_R34_NE REUNION_R34_SE REUNION_R34_SW REUNION_R34_NW REUNION_R50_NE REUNION_R50_SE REUNION_R50_SW REUNION_R50_NW REUNION_R64_NE REUNION_R64_SE REUNION_R64_SW REUNION_R64_NW BOM_LAT BOM_LON BOM_TYPE BOM_WIND BOM_PRES BOM_TNUM BOM_CI BOM_RMW BOM_R34_NE BOM_R34_SE BOM_R34_SW BOM_R34_NW BOM_R50_NE BOM_R50_SE BOM_R50_SW BOM_R50_NW BOM_R64_NE BOM_R64_SE BOM_R64_SW BOM_R64_NW BOM_ROCI BOM_POCI BOM_EYE BOM_POS_METHOD BOM_PRES_METHOD NADI_LAT NADI_LON NADI_CAT NADI_WIND NADI_PRES WELLINGTON_LAT WELLINGTON_LON WELLINGTON_WIND WELLINGTON_PRES DS824_LAT DS824_LON DS824_STAGE DS824_WIND DS824_PRES TD9636_LAT TD9636_LON TD9636_STAGE TD9636_WIND TD9636_PRES TD9635_LAT TD9635_LON TD9635_WIND TD9635_PRES TD9635_ROCI NEUMANN_LAT NEUMANN_LON NEUMANN_CLASS NEUMANN_WIND NEUMANN_PRES MLC_LAT MLC_LON MLC_CLASS MLC_WIND MLC_PRES USA_GUST BOM_GUST BOM_GUST_PER REUNION_GUST REUNION_GUST_PER USA_SEAHGT USA_SEARAD_NE USA_SEARAD_SE USA_SEARAD_SW USA_SEARAD_NW STORM_SPEED STORM_DIR
1987030N06091 1987 9 NI BB NOT_NAMED 1987-01-30 06:00:00 NR 5.90000 90.7000 main 499 499 O_________O___ jtwc_io IO011987 5.90000 90.7000 20 -1 5.90000 90.7000 1 20 10 269
1987030N06091 1987 9 NI BB NOT_NAMED 1987-01-30 09:00:00 NR 5.89118 90.1933 main 554 554 P_________P___ IO011987 5.89762 90.1875 20 -1 5.88475 90.1991 1 20 10 270
1987030N06091 1987 9 NI BB NOT_NAMED 1987-01-30 12:00:00 NR 5.90000 89.7000 main 610 610 O_________O___ jtwc_io IO011987 5.90000 89.7000 20 -1 5.90000 89.7000 1 20 10 273
1987030N06091 1987 9 NI BB NOT_NAMED 1987-01-30 15:00:00 NR 5.94452 89.2275 main 665 665 P_________P___ IO011987 5.91993 89.2499 20 -1 5.96912 89.2050 1 20 9 279
1987030N06091 1987 9 NI BB NOT_NAMED 1987-01-30 18:00:00 NR 6.04258 88.7597 main 710 710 O_________P___ jtwc_io IO011987 6.00000 88.8000 20 -1 6.08516 88.7194 1 20 10 286
1987030N06091 1987 9 NI BB NOT_NAMED 1987-01-30 21:00:00 NR 6.20931 88.2745 main 713 655 P_________P___ IO011987 6.18499 88.3001 20 -1 6.23362 88.2490 1 20 10 291
1987030N06091 1987 9 NI BB NOT_NAMED 1987-01-31 00:00:00 NR 6.40000 87.8000 main 655 610 O_________O___ jtwc_io IO011987 6.40000 87.8000 20 -1 6.40000 87.8000 1 20 10 289
1987030N06091 1987 9 NI BB NOT_NAMED 1987-01-31 03:00:00 NR 6.53699 87.3407 main 599 553 P_________P___ IO011987 6.54997 87.3275 22 -1 6.52401 87.3539 1 21 9 288
1987030N06091 1987 9 NI BB NOT_NAMED 1987-01-31 06:00:00 NR 6.68373 86.9161 main 553 519 O_________P___ jtwc_io IO011987 6.70000 86.9000 25 -1 6.66747 86.9323 1 22 9 292
1987030N06091 1987 9 NI BB NOT_NAMED 1987-01-31 09:00:00 NR 6.86106 86.5397 main 508 475 P_________P___ IO011987 6.86994 86.5349 25 -1 6.85218 86.5445 1 23 8 300
1987030N06091 1987 9 NI BB NOT_NAMED 1987-01-31 12:00:00 NR 7.10000 86.2000 main 475 443 O_________O___ jtwc_io IO011987 7.10000 86.2000 25 -1 7.10000 86.2000 1 25 9 308
1987030N06091 1987 9 NI BB NOT_NAMED 1987-01-31 15:00:00 NR 7.41781 85.8312 main 432 407 P_________P___ IO011987 7.41253 85.8200 27 -1 7.42309 85.8423 1 26 10 316
1987030N06091 1987 9 NI BB NOT_NAMED 1987-01-31 18:00:00 NR 7.80499 85.5179 main 407 389 O_________P___ jtwc_io IO011987 7.80000 85.5000 30 -1 7.80998 85.5357 1 27 10 327
1987030N06091 1987 9 NI BB NOT_NAMED 1987-01-31 21:00:00 NR 8.23841 85.2969 main 391 385 P_________P___ IO011987 8.23496 85.2825 30 -1 8.24186 85.3112 1 28 10 341
1987030N06091 1987 9 NI BB NOT_NAMED 1987-02-01 00:00:00 NR 8.70000 85.2000 main 394 394 O_________O___ jtwc_io IO011987 8.70000 85.2000 30 -1 8.70000 85.2000 1 30 9 356
1987030N06091 1987 9 NI BB NOT_NAMED 1987-02-01 03:00:00 NR 9.14791 85.2329 main 410 410 P_________P___ IO011987 9.14248 85.2475 32 -1 9.15333 85.2184 1 32 9 11
1987030N06091 1987 9 NI BB NOT_NAMED 1987-02-01 06:00:00 NR 9.61370 85.3748 main 454 454 O_________P___ jtwc_io IO011987 9.60000 85.4000 35 0 9.62741 85.3497 1 35 10 19
1987030N06091 1987 9 NI BB NOT_NAMED 1987-02-01 09:00:00 NR 10.1026 85.5668 main 498 498 P_________P___ IO011987 10.0925 85.5775 37 0 10.1128 85.5561 1 37 11 23
1987030N06091 1987 9 NI BB NOT_NAMED 1987-02-01 12:00:00 NR 10.6000 85.8000 main 542 542 O_________O___ jtwc_io IO011987 10.6000 85.8000 40 0 10.6000 85.8000 2 40 11 25
1987030N06091 1987 9 NI BB NOT_NAMED 1987-02-01 15:00:00 NR 11.0913 86.0319 main 588 588 P_________P___ IO011987 11.1075 86.0425 42 0 11.0750 86.0213 2 42 11 26
1987030N06091 1987 9 NI BB NOT_NAMED 1987-02-01 18:00:00 NR 11.5750 86.2850 main 645 645 O_________P___ jtwc_io IO011987 11.6000 86.3000 45 0 11.5500 86.2701 2 45 11 28
1987030N06091 1987 9 NI BB NOT_NAMED 1987-02-01 21:00:00 NR 12.0375 86.5383 main 685 667 P_________P___ IO011987 12.0500 86.5427 47 0 12.0250 86.5339 2 47 11 29
1987030N06091 1987 9 NI BB NOT_NAMED 1987-02-02 00:00:00 NR 12.5000 86.8000 main 667 653 O_________O___ jtwc_io IO011987 12.5000 86.8000 50 0 12.5000 86.8000 2 50 11 29
1987030N06091 1987 9 NI BB NOT_NAMED 1987-02-02 03:00:00 NR 12.9916 87.0868 main 654 642 P_________P___ IO011987 13.0000 87.1074 52 0 12.9831 87.0662 2 50 11 29
1987030N06091 1987 9 NI BB NOT_NAMED 1987-02-02 06:00:00 NR 13.4825 87.3650 main 642 618 O_________P___ jtwc_io IO011987 13.5000 87.4000 55 0 13.4650 87.3299 2 50 11 28
1987030N06091 1987 9 NI BB NOT_NAMED 1987-02-02 09:00:00 NR 13.9484 87.6007 main 618 588 P_________P___ IO011987 13.9575 87.6226 52 0 13.9394 87.5787 2 50 10 25
1987030N06091 1987 9 NI BB NOT_NAMED 1987-02-02 12:00:00 NR 14.4000 87.8000 main 588 563 O_________O___ jtwc_io IO011987 14.4000 87.8000 50 0 14.4000 87.8000 2 50 10 21
1987030N06091 1987 9 NI BB NOT_NAMED 1987-02-02 15:00:00 NR 14.8503 87.9544 main 563 539 P_________P___ IO011987 14.8575 87.9576 47 0 14.8431 87.9512 2 47 9 17
1987030N06091 1987 9 NI BB NOT_NAMED 1987-02-02 18:00:00 NR 15.2860 88.0894 main 539 516 O_________P___ jtwc_io IO011987 15.3000 88.1000 45 0 15.2720 88.0788 2 45 9 17
1987030N06091 1987 9 NI BB NOT_NAMED 1987-02-02 21:00:00 NR 15.6987 88.2186 main 516 484 P_________P___ IO011987 15.7074 88.2203 42 0 15.6899 88.2169 2 42 9 20
1987030N06091 1987 9 NI BB NOT_NAMED 1987-02-03 00:00:00 NR 16.1000 88.4000 main 484 460 O_________O___ jtwc_io IO011987 16.1000 88.4000 40 0 16.1000 88.4000 2 40 9 30
1987030N06091 1987 9 NI BB NOT_NAMED 1987-02-03 03:00:00 NR 16.4975 88.6891 main 460 442 P_________P___ IO011987 16.5001 88.7274 37 0 16.4949 88.6509 2 37 10 37
1987030N06091 1987 9 NI BB NOT_NAMED 1987-02-03 06:00:00 NR 16.8924 89.0267 main 442 429 O_________P___ jtwc_io IO011987 16.9000 89.1000 35 0 16.8847 88.9535 2 35 10 38
1987030N06091 1987 9 NI BB NOT_NAMED 1987-02-03 09:00:00 NR 17.2910 89.3486 main 429 429 P_________P___ IO011987 17.2998 89.3928 32 -1 17.2822 89.3043 2 32 10 39
1987030N06091 1987 9 NI BB NOT_NAMED 1987-02-03 12:00:00 NR 17.7000 89.7000 main 429 367 O_________O___ jtwc_io IO011987 17.7000 89.7000 30 -1 17.7000 89.7000 1 30 11 41
1987030N06091 1987 9 NI BB NOT_NAMED 1987-02-03 15:00:00 NR 18.1075 90.0850 main 367 306 P_________P___ IO011987 18.0773 90.0630 27 -1 18.1377 90.1070 1 27 12 43
1987030N06091 1987 9 NI BB NOT_NAMED 1987-02-03 18:00:00 NR 18.5493 90.5295 main 306 229 O_________P___ jtwc_io IO011987 18.5000 90.5000 25 -1 18.5985 90.5590 1 25 13 44
1987030N06091 1987 9 NI BB NOT_NAMED 1987-02-03 21:00:00 NR 19.0562 91.0382 main 222 139 P_________P___ IO011987 19.0275 91.0201 22 -1 19.0850 91.0564 1 22 15 44
1987030N06091 1987 9 NI BB NOT_NAMED 1987-02-04 00:00:00 NR 19.6000 91.6000 main 139 56 O_________O___ jtwc_io IO011987 19.6000 91.6000 20 -1 19.6000 91.6000 1 20 15 45
1987030N06091 1987 9 NI BB NOT_NAMED 1987-02-04 03:00:00 NR 20.1503 92.1919 main 53 0 P_________P___ IO011987 20.1578 92.1968 20 -1 20.1428 92.1870 1 20 16 46
1987030N06091 1987 9 NI BB NOT_NAMED 1987-02-04 06:00:00 NR 20.7000 92.8000 main 0 O_________O___ jtwc_io IO011987 20.7000 92.8000 20 -1 20.7000 92.8000 1 20 16 46

About IBTrACS Database

This database is a web-friendly format of International Best Track Archive for Climate Stewardship (IBTrACS), a global best track data archive curated by NOAA dating back to 1842.

Updated: 2021-10-08